This is the latest recevied weather packets stored in our database for station/object OE-11051. If no packets are shown the sender has not sent any weather packets the latest 10 day(s).
| Time | Temp. | Humidity | Pressure | Rain* | Wind** | Luminosity | Snow |
|---|---|---|---|---|---|---|---|
| 1787577903 | 24.44° C | 39% | 1017.5 hPa | 0 mm | - | 645 W/m² | - |
| 1787577079 | 24.44° C | 39% | 1017.6 hPa | 0 mm | - | 658 W/m² | - |
| 1787576703 | 25° C | 38% | 1017.8 hPa | 0 mm | - | 567 W/m² | - |
| 1787576103 | 25° C | 38% | 1017.7 hPa | 0 mm | - | 716 W/m² | - |
| 1787575279 | 24.44° C | 38% | 1018 hPa | 0 mm | - | 709 W/m² | - |
| 1787574904 | 25° C | 37% | 1018 hPa | 0 mm | - | 761 W/m² | - |
| 1787574303 | 25° C | 38% | 1018 hPa | 0 mm | - | 729 W/m² | - |
| 1787573479 | 24.44° C | 38% | 1018.1 hPa | 0 mm | - | 754 W/m² | - |
| 1787573104 | 25° C | 37% | 1018.1 hPa | 0 mm | - | 754 W/m² | - |
| 1787572503 | 24.44° C | 37% | 1018.2 hPa | 0 mm | - | 761 W/m² | - |
| 1787571678 | 24.44° C | 38% | 1018.2 hPa | 0 mm | - | 761 W/m² | - |
| 1787570704 | 23.89° C | 40% | 1018.4 hPa | 0 mm | - | 761 W/m² | - |
| 1787569879 | 23.33° C | 41% | 1018.8 hPa | 0 mm | - | 761 W/m² | - |
| 1787569503 | 23.33° C | 41% | 1018.9 hPa | 0 mm | - | 754 W/m² | - |
| 1787568904 | 23.89° C | 42% | 1018.8 hPa | 0 mm | - | 748 W/m² | - |
| 1787568078 | 23.33° C | 45% | 1019 hPa | 0 mm | - | 741 W/m² | - |
| 1787567703 | 23.33° C | 45% | 1019.1 hPa | 0 mm | - | 735 W/m² | - |
| 1787567050 | 23.33° C | 46% | 1019.2 hPa | 0 mm | - | 729 W/m² | - |
| 1787566278 | 22.22° C | 48% | 1019.5 hPa | - | - | - | - |
| 1787565903 | 21.67° C | 51% | 1019.6 hPa | - | - | - | - |
| 1787565302 | 22.22° C | 49% | 1019.6 hPa | - | - | - | - |
| 1787563571 | 20.56° C | 53% | 1020 hPa | - | - | - | - |
* Rain latest hour (hover to see other rain measurements)
** Current wind speed in m/s (hover to see current wind gust speed)